createdAt,value
2023-04-24T00:02:58.893Z,96973.75
2023-04-24T00:06:01.943Z,96974.94
2023-04-24T00:09:04.322Z,96976.13
2023-04-24T00:12:06.058Z,96970.88
2023-04-24T00:15:10.196Z,96974.09
2023-04-24T00:18:11.746Z,96968.34
2023-04-24T00:21:13.353Z,96963.34
2023-04-24T00:24:15.097Z,96961.72
2023-04-24T00:27:16.701Z,96960.59
2023-04-24T00:30:19.901Z,96961.44
2023-04-24T00:33:21.660Z,96957.06
2023-04-24T00:36:23.531Z,96959.19
2023-04-24T00:39:25.705Z,96956.66
2023-04-24T00:42:27.793Z,96949.84
2023-04-24T00:45:32.345Z,96956.97
2023-04-24T00:48:34.634Z,96957.84
2023-04-24T00:51:37.709Z,96959.09
2023-04-24T00:54:39.622Z,96952.28
2023-04-24T00:57:41.465Z,96953.25
2023-04-24T01:00:44.880Z,96956.22
2023-04-24T01:03:46.666Z,96961.34
2023-04-24T01:06:51.052Z,96950.03
2023-04-24T01:09:54.088Z,96945.03
2023-04-24T01:12:56.439Z,96931.91
2023-04-24T01:15:59.653Z,96940.47
2023-04-24T01:19:02.431Z,96939.81
2023-04-24T01:22:04.568Z,96938.31
2023-04-24T01:25:08.074Z,96936.63
2023-04-24T01:28:09.690Z,96939.28
2023-04-24T01:31:11.615Z,96940.66
2023-04-24T01:34:13.854Z,96943.63
2023-04-24T01:37:16.668Z,96944.28
2023-04-24T01:40:19.734Z,96944.94
2023-04-24T01:43:21.552Z,96944.59
2023-04-24T01:46:23.822Z,96945.56
2023-04-24T01:49:25.680Z,96949.19
2023-04-24T01:52:28.202Z,96948.97
2023-04-24T01:55:31.485Z,96946.41
2023-04-24T01:58:33.206Z,96948.75
2023-04-24T02:01:37.743Z,96939.91
2023-04-24T02:04:40.279Z,96939.72
2023-04-24T02:07:43.009Z,96935.31
2023-04-24T02:10:45.878Z,96927.25
2023-04-24T02:13:47.639Z,96935.97
2023-04-24T02:16:49.372Z,96929.81
2023-04-24T02:19:51.207Z,96928.09
2023-04-24T02:22:52.868Z,96935.75
2023-04-24T02:25:56.903Z,96931.50
2023-04-24T02:28:59.166Z,96933.31
2023-04-24T02:32:00.763Z,96927.16
2023-04-24T02:35:02.387Z,96922.88
2023-04-24T02:38:04.160Z,96923.81
2023-04-24T02:41:07.833Z,96922.44
2023-04-24T02:44:09.690Z,96921.50
2023-04-24T02:47:11.551Z,96923.19
2023-04-24T02:50:13.130Z,96924.47
2023-04-24T02:53:14.892Z,96915.53
2023-04-24T02:56:18.095Z,96920.13
2023-04-24T02:59:19.926Z,96908.41
2023-04-24T03:02:21.855Z,96911.81
2023-04-24T03:05:23.747Z,96910.00
2023-04-24T03:08:25.629Z,96906.38
2023-04-24T03:11:28.741Z,96905.75
2023-04-24T03:14:32.317Z,96907.44
2023-04-24T03:17:34.496Z,96907.97
2023-04-24T03:20:37.950Z,96905.41
2023-04-24T03:23:41.733Z,96910.72
2023-04-24T03:26:46.235Z,96923.19
2023-04-24T03:30:07.372Z,96913.72
2023-04-24T03:33:18.869Z,96913.06
2023-04-24T03:36:31.745Z,96916.69
2023-04-24T03:39:33.969Z,96903.59
2023-04-24T03:42:39.240Z,96902.06
2023-04-24T03:45:41.597Z,96901.22
2023-04-24T03:48:44.162Z,96902.41
2023-04-24T03:51:46.370Z,96910.50
2023-04-24T03:54:58.068Z,96903.34
2023-04-24T03:58:02.430Z,96906.88
2023-04-24T04:01:04.032Z,96902.50
2023-04-24T04:04:18.144Z,96905.91
2023-04-24T04:07:21.154Z,96899.84
2023-04-24T04:10:22.939Z,96896.56
2023-04-24T04:13:26.146Z,96909.06
2023-04-24T04:16:28.937Z,96903.00
2023-04-24T04:19:37.234Z,96908.56
2023-04-24T04:22:39.094Z,96900.56
2023-04-24T04:25:44.030Z,96903.97
2023-04-24T04:28:48.753Z,96905.66
2023-04-24T04:31:51.045Z,96907.47
2023-04-24T04:34:54.414Z,96903.13
2023-04-24T04:37:59.836Z,96897.69
2023-04-24T04:41:24.775Z,96906.41
2023-04-24T04:44:30.395Z,96904.59
2023-04-24T04:47:33.342Z,96915.91
2023-04-24T04:50:36.277Z,96917.63
2023-04-24T04:53:42.171Z,96918.69
2023-04-24T04:56:43.910Z,96919.53
2023-04-24T04:59:47.461Z,96925.81
2023-04-24T05:03:05.963Z,96928.66
2023-04-24T05:06:16.252Z,96935.91
2023-04-24T05:09:19.460Z,96937.81
2023-04-24T05:12:30.617Z,96938.03
2023-04-24T05:15:35.155Z,96944.38
2023-04-24T05:18:36.902Z,96937.47
2023-04-24T05:21:40.545Z,96938.22
2023-04-24T05:24:43.092Z,96933.00
2023-04-24T05:28:04.749Z,96938.53
2023-04-24T05:31:09.813Z,96938.31
2023-04-24T05:34:11.844Z,96948.84
2023-04-24T05:37:17.531Z,96956.66
2023-04-24T05:40:19.759Z,96963.09
2023-04-24T05:43:21.437Z,96956.09
2023-04-24T05:46:24.605Z,96959.41
2023-04-24T05:49:26.187Z,96966.50
2023-04-24T05:52:28.034Z,96962.25
2023-04-24T05:55:31.555Z,96959.69
2023-04-24T05:58:33.626Z,96961.72
2023-04-24T06:01:37.466Z,96954.97
2023-04-24T06:04:48.812Z,96974.56
2023-04-24T06:07:51.108Z,96964.34
2023-04-24T06:10:55.637Z,96973.16
2023-04-24T06:13:58.002Z,96980.09
2023-04-24T06:17:16.444Z,96980.81
2023-04-24T06:20:18.520Z,96979.50
2023-04-24T06:23:20.699Z,96988.06
2023-04-24T06:26:25.334Z,96983.97
2023-04-24T06:29:27.509Z,96985.59
2023-04-24T06:32:32.136Z,96981.41
2023-04-24T06:35:35.074Z,96982.28
2023-04-24T06:38:36.855Z,96985.59
2023-04-24T06:41:38.749Z,96978.72
2023-04-24T06:44:43.973Z,96972.44
2023-04-24T06:47:47.744Z,96982.97
2023-04-24T06:50:49.303Z,96972.53
2023-04-24T06:53:51.161Z,96986.78
2023-04-24T06:56:53.165Z,96998.81
2023-04-24T06:59:57.052Z,96996.38
2023-04-24T07:03:00.205Z,96991.91
2023-04-24T07:06:02.125Z,96994.66
2023-04-24T07:09:04.691Z,96990.19
2023-04-24T07:12:06.866Z,96989.59
2023-04-24T07:15:09.487Z,96997.78
2023-04-24T07:18:13.928Z,96990.31
2023-04-24T07:21:15.734Z,97004.00
2023-04-24T07:24:17.431Z,97001.75
2023-04-24T07:27:19.056Z,97008.56
2023-04-24T07:30:20.770Z,97011.25
2023-04-24T07:33:23.844Z,97011.44
2023-04-24T07:36:26.977Z,97014.34
2023-04-24T07:39:28.814Z,97020.69
2023-04-24T07:42:31.981Z,97020.56
2023-04-24T07:45:37.091Z,97020.19
2023-04-24T07:48:40.770Z,97017.50
2023-04-24T07:51:42.797Z,97024.03
2023-04-24T07:54:44.933Z,97021.50
2023-04-24T07:57:46.905Z,97025.97
2023-04-24T08:00:48.498Z,97024.78
2023-04-24T08:03:51.977Z,97027.78
2023-04-24T08:06:53.922Z,97028.41
2023-04-24T08:09:55.674Z,97021.06
2023-04-24T08:12:57.755Z,97030.69
2023-04-24T08:15:59.347Z,97033.28
2023-04-24T08:19:02.749Z,97031.06
2023-04-24T08:22:05.225Z,97033.09
2023-04-24T08:25:07.404Z,97040.59
2023-04-24T08:28:11.764Z,97034.78
2023-04-24T08:31:13.443Z,97029.88
2023-04-24T08:34:17.352Z,97031.81
2023-04-24T08:37:19.160Z,97027.72
2023-04-24T08:40:23.470Z,97032.78
2023-04-24T08:43:28.127Z,97029.28
2023-04-24T08:46:31.579Z,97044.81
2023-04-24T08:49:35.134Z,97044.19
2023-04-24T08:52:37.198Z,97027.88
2023-04-24T08:55:39.105Z,97042.88
2023-04-24T08:58:41.082Z,97040.31
2023-04-24T09:01:44.082Z,97049.06
2023-04-24T09:04:48.657Z,97047.06
2023-04-24T09:07:51.946Z,97048.09
2023-04-24T09:10:54.634Z,97044.06
2023-04-24T09:13:57.299Z,97053.97
2023-04-24T09:16:58.978Z,97048.09
2023-04-24T09:20:02.472Z,97042.91
2023-04-24T09:23:04.655Z,97047.72
2023-04-24T09:26:08.967Z,97055.06
2023-04-24T09:29:15.496Z,97048.03
2023-04-24T09:32:23.281Z,97049.72
2023-04-24T09:35:27.726Z,97054.09
2023-04-24T09:38:33.058Z,97057.03
2023-04-24T09:41:35.538Z,97048.41
2023-04-24T09:44:37.366Z,97048.41
2023-04-24T09:47:42.964Z,97054.84
2023-04-24T09:50:49.293Z,97053.78
2023-04-24T09:53:53.751Z,97055.81
2023-04-24T09:57:00.944Z,97058.25
2023-04-24T10:00:04.031Z,97063.13
2023-04-24T10:03:13.708Z,97071.41
2023-04-24T10:06:18.005Z,97069.47
2023-04-24T10:09:20.508Z,97068.25
2023-04-24T10:12:22.428Z,97089.22
2023-04-24T10:15:26.184Z,97076.84
2023-04-24T10:18:28.218Z,97075.50
2023-04-24T10:21:32.416Z,97067.88
2023-04-24T10:24:34.680Z,97071.34
2023-04-24T10:27:37.211Z,97089.00
2023-04-24T10:30:40.184Z,97081.03
2023-04-24T10:33:42.570Z,97080.94
2023-04-24T10:36:47.078Z,97081.16
2023-04-24T10:39:49.613Z,97077.06
2023-04-24T10:42:53.470Z,97079.00
2023-04-24T10:46:02.074Z,97080.75
2023-04-24T10:49:05.179Z,97079.97
2023-04-24T10:52:09.976Z,97075.41
2023-04-24T10:55:13.372Z,97077.50
2023-04-24T10:58:17.430Z,97079.19
2023-04-24T11:01:27.398Z,97096.41
2023-04-24T11:04:32.920Z,97094.38
2023-04-24T11:21:39.577Z,97126.81
2023-04-24T11:24:50.156Z,97111.31
2023-04-24T11:28:04.210Z,97128.41
2023-04-24T11:31:20.748Z,97135.03
2023-04-24T11:34:22.991Z,97135.03
2023-04-24T11:37:27.645Z,97141.31
2023-04-24T11:40:29.261Z,97145.66
2023-04-24T11:46:35.240Z,97156.91
2023-04-24T11:49:37.953Z,97156.31
2023-04-24T11:52:41.476Z,97168.34
2023-04-24T11:55:43.086Z,97162.34
2023-04-24T11:58:45.564Z,97171.06
2023-04-24T12:01:47.687Z,97176.28
2023-04-24T12:04:49.695Z,97182.84
2023-04-24T12:07:55.924Z,97193.56
2023-04-24T12:10:57.546Z,97185.50
2023-04-24T12:14:10.556Z,97195.75
2023-04-24T12:17:12.703Z,97194.72
2023-04-24T12:20:15.182Z,97207.81
2023-04-24T12:23:34.016Z,97206.50
2023-04-24T12:26:35.739Z,97215.25
2023-04-24T12:29:37.318Z,97219.41
2023-04-24T12:32:42.126Z,97209.09
2023-04-24T12:35:44.063Z,97230.22
2023-04-24T12:38:47.715Z,97230.63
2023-04-24T12:41:57.689Z,97243.06
2023-04-24T12:45:00.870Z,97238.28
2023-04-24T12:48:02.650Z,97239.53
2023-04-24T12:51:04.611Z,97247.63
2023-04-24T12:54:08.332Z,97255.41
2023-04-24T12:57:10.018Z,97252.47
2023-04-24T13:00:12.631Z,97255.81
2023-04-24T13:03:14.551Z,97260.88
2023-04-24T13:06:16.536Z,97264.47
2023-04-24T13:09:19.435Z,97272.75
2023-04-24T13:12:21.396Z,97276.28
2023-04-24T13:15:23.262Z,97289.69
2023-04-24T13:18:24.844Z,97285.22
2023-04-24T13:21:27.396Z,97298.38
2023-04-24T13:24:30.415Z,97310.41
2023-04-24T13:27:32.248Z,97305.78
2023-04-24T13:30:33.942Z,97295.53
2023-04-24T13:33:35.651Z,97317.78
2023-04-24T13:36:37.415Z,97315.44
2023-04-24T13:39:42.344Z,97320.66
2023-04-24T13:42:44.305Z,97315.72
2023-04-24T13:45:46.015Z,97314.09
2023-04-24T13:48:47.783Z,97313.75
2023-04-24T13:51:49.370Z,97318.19
2023-04-24T13:54:52.518Z,97325.56
2023-04-24T13:57:56.131Z,97327.88
2023-04-24T14:00:57.912Z,97335.91
2023-04-24T14:04:01.011Z,97321.78
2023-04-24T14:07:03.023Z,97342.69
2023-04-24T14:10:06.690Z,97336.00
2023-04-24T14:13:08.308Z,97349.44
2023-04-24T14:16:10.865Z,97338.28
2023-04-24T14:19:12.474Z,97347.00
2023-04-24T14:22:14.656Z,97355.69
2023-04-24T14:25:17.782Z,97351.16
2023-04-24T14:28:20.090Z,97351.25
2023-04-24T14:31:21.772Z,97354.13
2023-04-24T14:34:23.369Z,97361.16
2023-04-24T14:37:25.596Z,97356.34
2023-04-24T14:40:56.313Z,97359.63
2023-04-24T14:43:50.826Z,97368.28
2023-04-24T14:46:52.664Z,97368.50
2023-04-24T14:49:54.313Z,97362.97
2023-04-24T14:52:58.751Z,97378.34
2023-04-24T14:56:02.132Z,97372.94
2023-04-24T14:59:03.730Z,97389.03
2023-04-24T15:02:15.442Z,97382.19
2023-04-24T15:05:19.035Z,97381.41
2023-04-24T15:08:20.798Z,97392.88
2023-04-24T15:11:24.180Z,97393.81
2023-04-24T15:14:28.427Z,97405.66
2023-04-24T15:17:31.996Z,97404.34
2023-04-24T15:20:37.300Z,97390.34
2023-04-24T15:23:40.978Z,97392.72
2023-04-24T15:26:44.062Z,97410.81
2023-04-24T15:29:46.158Z,97409.69
2023-04-24T15:32:48.446Z,97413.13
2023-04-24T15:35:50.183Z,97409.38
2023-04-24T15:38:51.883Z,97425.81
2023-04-24T15:41:55.035Z,97440.19
2023-04-24T15:44:56.615Z,97427.09
2023-04-24T15:47:58.764Z,97417.56
2023-04-24T15:51:01.410Z,97433.66
2023-04-24T15:54:03.145Z,97425.69
2023-04-24T15:57:06.318Z,97436.56
2023-04-24T16:00:09.714Z,97431.69
2023-04-24T16:03:14.262Z,97433.56
2023-04-24T16:06:16.317Z,97437.69
2023-04-24T16:09:17.869Z,97443.41
2023-04-24T16:12:21.132Z,97446.44
2023-04-24T16:15:22.718Z,97448.06
2023-04-24T16:18:24.622Z,97447.22
2023-04-24T16:21:27.306Z,97454.03
2023-04-24T16:24:29.406Z,97454.03
2023-04-24T16:27:32.435Z,97463.69
2023-04-24T16:30:34.225Z,97453.94
2023-04-24T16:33:35.930Z,97457.44
2023-04-24T16:36:37.675Z,97458.38
2023-04-24T16:39:44.081Z,97464.69
2023-04-24T16:42:48.674Z,97471.78
2023-04-24T16:45:50.274Z,97474.44
2023-04-24T16:48:52.076Z,97487.09
2023-04-24T16:51:53.753Z,97485.38
2023-04-24T16:54:55.493Z,97475.72
2023-04-24T16:58:01.003Z,97475.94
2023-04-24T17:01:02.654Z,97472.41
2023-04-24T17:04:04.368Z,97486.44
2023-04-24T17:07:06.046Z,97481.16
2023-04-24T17:10:11.631Z,97481.00
2023-04-24T17:13:15.141Z,97480.84
2023-04-24T17:16:16.778Z,97486.16
2023-04-24T17:19:18.482Z,97485.22
2023-04-24T17:22:20.079Z,97491.38
2023-04-24T17:25:21.875Z,97488.66
2023-04-24T17:28:26.290Z,97493.94
2023-04-24T17:31:28.012Z,97493.25
2023-04-24T17:34:29.646Z,97492.41
2023-04-24T17:37:31.750Z,97487.09
2023-04-24T17:40:33.273Z,97492.56
2023-04-24T17:43:36.838Z,97501.69
2023-04-24T17:46:38.696Z,97504.66
2023-04-24T17:49:40.749Z,97524.06
2023-04-24T17:52:42.448Z,97515.25
2023-04-24T17:55:44.629Z,97513.59
2023-04-24T17:58:48.151Z,97515.63
2023-04-24T18:01:50.578Z,97515.13
2023-04-24T18:04:54.968Z,97519.00
2023-04-24T18:07:57.510Z,97517.53
2023-04-24T18:10:59.129Z,97517.75
2023-04-24T18:14:02.100Z,97521.72
2023-04-24T18:17:03.720Z,97523.50
2023-04-24T18:20:06.401Z,97523.50
2023-04-24T18:23:08.480Z,97520.19
2023-04-24T18:26:10.051Z,97532.69
2023-04-24T18:29:13.017Z,97522.16
2023-04-24T18:32:14.738Z,97535.31
2023-04-24T18:35:17.060Z,97531.13
2023-04-24T18:38:18.680Z,97531.16
2023-04-24T18:41:20.253Z,97530.44
2023-04-24T18:44:23.754Z,97529.53
2023-04-24T18:47:25.332Z,97539.09
2023-04-24T18:50:29.776Z,97546.19
2023-04-24T18:53:31.680Z,97536.41
2023-04-24T18:56:33.444Z,97547.06
2023-04-24T18:59:36.669Z,97553.28
2023-04-24T19:02:38.653Z,97547.13
2023-04-24T19:05:40.343Z,97554.16
2023-04-24T19:08:44.625Z,97551.56
2023-04-24T19:11:47.091Z,97556.03
2023-04-24T19:14:51.963Z,97557.72
2023-04-24T19:17:54.006Z,97557.53
2023-04-24T19:20:55.577Z,97557.22
2023-04-24T19:23:57.477Z,97560.63
2023-04-24T19:26:59.220Z,97568.63
2023-04-24T19:30:02.152Z,97577.66
2023-04-24T19:33:03.914Z,97575.06
2023-04-24T19:36:06.273Z,97575.94
2023-04-24T19:39:08.002Z,97578.81
2023-04-24T19:42:10.819Z,97580.72
2023-04-24T19:45:14.167Z,97573.63
2023-04-24T19:48:15.897Z,97567.28
2023-04-24T19:51:18.334Z,97574.44
2023-04-24T19:54:20.532Z,97573.50
2023-04-24T19:57:22.310Z,97562.91
2023-04-24T20:00:25.409Z,97559.41
2023-04-24T20:03:33.598Z,97564.75
2023-04-24T20:06:36.370Z,97564.75
2023-04-24T20:09:38.020Z,97566.50
2023-04-24T20:12:39.768Z,97562.06
2023-04-24T20:15:42.966Z,97573.44
2023-04-24T20:18:44.846Z,97562.75
2023-04-24T20:21:46.676Z,97564.56
2023-04-24T20:24:48.752Z,97571.50
2023-04-24T20:27:50.419Z,97569.84
2023-04-24T20:30:53.835Z,97562.91
2023-04-24T20:33:55.727Z,97577.94
2023-04-24T20:36:58.871Z,97570.19
2023-04-24T20:40:05.195Z,97575.66
2023-04-24T20:43:07.895Z,97567.03
2023-04-24T20:46:11.239Z,97574.22
2023-04-24T20:49:13.009Z,97583.09
2023-04-24T20:52:14.840Z,97584.09
2023-04-24T20:55:17.767Z,97595.31
2023-04-24T20:58:21.155Z,97579.50
2023-04-24T21:01:25.078Z,97590.19
2023-04-24T21:04:26.685Z,97602.72
2023-04-24T21:07:28.603Z,97606.28
2023-04-24T21:10:30.822Z,97602.81
2023-04-24T21:13:32.587Z,97587.88
2023-04-24T21:16:35.744Z,97595.81
2023-04-24T21:19:37.509Z,97602.97
2023-04-24T21:22:39.649Z,97592.53
2023-04-24T21:25:41.288Z,97601.38
2023-04-24T21:28:43.087Z,97596.16
2023-04-24T21:31:46.451Z,97589.91
2023-04-24T21:34:49.257Z,97583.88
2023-04-24T21:37:50.882Z,97588.38
2023-04-24T21:40:53.344Z,97591.13
2023-04-24T21:43:55.227Z,97597.41
2023-04-24T21:46:59.795Z,97592.97
2023-04-24T21:50:01.393Z,97590.41
2023-04-24T21:53:03.182Z,97586.91
2023-04-24T21:56:05.301Z,97597.34
2023-04-24T21:59:07.217Z,97587.69
2023-04-24T22:02:10.425Z,97597.41
2023-04-24T22:05:18.865Z,97594.75
2023-04-24T22:08:20.460Z,97592.19
2023-04-24T22:11:26.758Z,97584.44
2023-04-24T22:14:28.957Z,97594.09
2023-04-24T22:17:33.684Z,97596.88
2023-04-24T22:20:35.309Z,97581.00
2023-04-24T22:23:37.178Z,97598.59
2023-04-24T22:26:39.218Z,97589.88
2023-04-24T22:29:40.939Z,97594.38
2023-04-24T22:32:44.321Z,97593.59
2023-04-24T22:35:45.922Z,97590.13
2023-04-24T22:38:47.712Z,97593.78
2023-04-24T22:41:50.182Z,97594.78
2023-04-24T22:44:51.759Z,97592.28
2023-04-24T22:47:54.984Z,97595.09
2023-04-24T22:50:56.766Z,97589.97
2023-04-24T22:53:58.515Z,97594.38
2023-04-24T22:57:01.196Z,97591.06
2023-04-24T23:00:03.917Z,97594.59
2023-04-24T23:03:07.152Z,97579.91
2023-04-24T23:06:08.998Z,97590.56
2023-04-24T23:09:10.755Z,97576.56
2023-04-24T23:12:12.427Z,97580.28
2023-04-24T23:15:14.120Z,97583.94
2023-04-24T23:18:17.457Z,97583.00
2023-04-24T23:21:19.231Z,97578.72
2023-04-24T23:24:20.947Z,97583.09
2023-04-24T23:27:22.650Z,97592.00
2023-04-24T23:30:24.520Z,97581.53
2023-04-24T23:33:28.646Z,97576.25
2023-04-24T23:36:30.709Z,97581.47
2023-04-24T23:39:32.609Z,97576.16
2023-04-24T23:42:34.379Z,97570.84
2023-04-24T23:45:36.068Z,97563.03
2023-04-24T23:48:39.053Z,97569.31
2023-04-24T23:51:41.048Z,97564.09
2023-04-24T23:54:42.656Z,97564.94
2023-04-24T23:57:44.283Z,97567.66
